Time;durP1;ratioP1;P1;durP2;ratioP2;P2;SDS_P1;SDS_P2;PMS_P1;PMS_P2;Temp;Humidity;BMP_temperature;BMP_pressure;BME280_temperature;BME280_humidity;BME280_pressure;Samples;Min_cycle;Max_cycle;Signal;HPM_P1;HPM_P2
2023/03/27 00:00:15;;;;;;;0.60;0.60;;;;;;;5.51;91.13;95771.63;29395;196;63009;-56
2023/03/27 00:00:46;;;;;;;;;;;;;;;5.49;91.55;95764.94;29996;983;6004;-57
2023/03/27 00:01:18;;;;;;;0.50;0.50;;;;;;;5.47;91.62;95777.87;29422;231;63000;-56
2023/03/27 00:01:49;;;;;;;0.50;0.50;;;;;;;5.51;91.74;95776.19;29395;239;63004;-58
2023/03/27 00:02:21;;;;;;;0.50;0.50;;;;;;;5.50;91.41;95782.66;29395;198;63000;-56
2023/03/27 00:02:53;;;;;;;0.82;0.82;;;;;;;5.50;91.81;95774.59;29395;199;63004;-58
2023/03/27 00:03:27;;;;;;;0.60;0.60;;;;;;;5.54;90.98;95770.25;29395;212;63001;-54
2023/03/27 00:03:59;;;;;;;0.52;0.52;;;;;;;5.52;91.12;95775.91;29395;225;63005;-56
2023/03/27 00:04:30;;;;;;;0.60;0.60;;;;;;;5.54;90.96;95776.44;29395;282;63001;-57
2023/03/27 00:05:01;;;;;;;0.60;0.60;;;;;;;5.54;90.93;95775.62;29395;218;63005;-62
2023/03/27 00:05:33;;;;;;;0.50;0.50;;;;;;;5.56;90.87;95778.81;29395;310;63000;-56
2023/03/27 00:06:15;;;;;;;0.50;0.50;;;;;;;5.56;91.13;95773.44;29394;214;64013;-57
2023/03/27 00:06:48;;;;;;;0.60;0.60;;;;;;;5.55;90.90;95777.19;29395;213;63005;-56
2023/03/27 00:07:19;;;;;;;0.60;0.60;;;;;;;5.54;91.28;95781.00;29394;207;64013;-59
2023/03/27 00:07:54;;;;;;;0.57;0.57;;;;;;;5.51;91.19;95782.38;29395;293;63004;-60
2023/03/27 00:08:27;;;;;;;0.50;0.50;;;;;;;5.50;91.45;95782.66;29395;221;63009;-58
2023/03/27 00:09:01;;;;;;;0.60;0.60;;;;;;;5.49;91.33;95767.62;29395;270;63004;-55
2023/03/27 00:09:36;;;;;;;0.60;0.60;;;;;;;5.46;91.77;95777.06;29395;236;63009;-56
2023/03/27 00:10:09;;;;;;;0.60;0.60;;;;;;;5.44;91.92;95787.31;29395;324;63016;-57
2023/03/27 00:10:41;;;;;;;0.50;0.50;;;;;;;5.51;92.06;95786.97;29395;219;63016;-56
2023/03/27 00:11:14;;;;;;;0.60;0.60;;;;;;;5.51;91.89;95786.97;29395;227;63005;-60
2023/03/27 00:11:46;;;;;;;0.60;0.60;;;;;;;5.53;91.88;95790.16;29395;226;63018;-57
2023/03/27 00:12:17;;;;;;;0.60;0.60;;;;;;;5.52;91.96;95788.56;29395;220;63008;-55
2023/03/27 00:12:49;;;;;;;0.60;0.60;;;;;;;5.41;92.22;95787.06;29394;224;64013;-55
2023/03/27 00:13:21;;;;;;;0.60;0.60;;;;;;;5.42;92.68;95794.84;29395;197;63005;-57
2023/03/27 00:13:53;;;;;;;0.60;0.60;;;;;;;5.39;92.71;95790.84;29394;197;64013;-57
2023/03/27 00:14:25;;;;;;;0.60;0.60;;;;;;;5.32;92.73;95784.22;29395;254;63005;-56
2023/03/27 00:14:56;;;;;;;0.60;0.60;;;;;;;5.33;93.46;95799.25;29394;218;64013;-57
2023/03/27 00:15:28;;;;;;;0.55;0.55;;;;;;;5.36;93.42;95802.19;29395;220;63004;-57
2023/03/27 00:15:59;;;;;;;0.50;0.50;;;;;;;5.41;92.84;95792.47;29395;241;63009;-54
2023/03/27 00:16:30;;;;;;;0.60;0.60;;;;;;;5.44;92.73;95791.88;29395;194;63004;-55
2023/03/27 00:17:05;;;;;;;0.60;0.60;;;;;;;5.48;92.56;95792.91;29395;223;63009;-57
2023/03/27 00:17:36;;;;;;;0.50;0.50;;;;;;;5.49;92.00;95797.22;29395;224;63004;-56
2023/03/27 00:18:08;;;;;;;0.50;0.50;;;;;;;5.50;91.82;95796.13;29395;297;63008;-56
2023/03/27 00:18:40;;;;;;;0.60;0.60;;;;;;;5.48;91.68;95787.53;29394;228;64009;-56
2023/03/27 00:19:12;;;;;;;0.50;0.50;;;;;;;5.48;91.17;95795.59;29395;348;63009;-55
2023/03/27 00:19:43;;;;;;;0.60;0.60;;;;;;;5.37;91.35;95792.22;29394;228;64009;-56
2023/03/27 00:20:17;;;;;;;0.60;0.60;;;;;;;5.36;92.17;95796.81;29395;223;63009;-56
2023/03/27 00:20:48;;;;;;;0.50;0.50;;;;;;;5.30;92.02;95797.94;29395;203;63007;-56
2023/03/27 00:21:21;;;;;;;0.60;0.60;;;;;;;5.32;92.38;95795.75;29395;216;63009;-57
2023/03/27 00:21:53;;;;;;;0.55;0.55;;;;;;;5.38;92.31;95804.59;29394;295;64009;-55
2023/03/27 00:22:24;;;;;;;0.60;0.60;;;;;;;5.39;91.73;95803.50;29395;229;63009;-55
2023/03/27 00:22:56;;;;;;;0.60;0.60;;;;;;;5.38;92.05;95799.22;29395;230;63004;-56
2023/03/27 00:23:28;;;;;;;0.60;0.60;;;;;;;5.41;91.30;95792.47;29395;236;63009;-58
2023/03/27 00:23:59;;;;;;;0.60;0.60;;;;;;;5.39;91.18;95795.44;29395;226;63004;-54
2023/03/27 00:24:31;;;;;;;0.55;0.55;;;;;;;5.36;91.47;95796.00;29394;324;64013;-57
2023/03/27 00:25:04;;;;;;;0.60;0.60;;;;;;;5.38;91.87;95809.97;29395;220;63007;-55
2023/03/27 00:25:35;;;;;;;0.60;0.60;;;;;;;5.39;91.77;95801.63;29395;243;63008;-57
2023/03/27 00:26:07;;;;;;;0.60;0.60;;;;;;;5.38;91.38;95810.75;29395;199;63005;-54
2023/03/27 00:26:39;;;;;;;0.50;0.50;;;;;;;5.39;91.05;95806.19;29394;219;64014;-55
2023/03/27 00:27:10;;;;;;;0.50;0.50;;;;;;;5.35;91.44;95805.16;29395;209;63005;-56
2023/03/27 00:27:43;;;;;;;0.60;0.60;;;;;;;5.28;91.56;95810.88;29395;214;63009;-56
2023/03/27 00:28:19;;;;;;;0.60;0.60;;;;;;;5.29;92.16;95807.09;29395;272;63005;-55
2023/03/27 00:28:51;;;;;;;0.60;0.60;;;;;;;5.28;92.58;95805.50;29394;207;64013;-55
2023/03/27 00:29:23;;;;;;;0.80;0.80;;;;;;;5.30;92.69;95811.38;29394;212;64009;-55
2023/03/27 00:29:55;;;;;;;0.50;0.50;;;;;;;5.32;92.53;95814.59;29395;203;63009;-58
2023/03/27 00:30:27;;;;;;;0.50;0.50;;;;;;;5.32;92.28;95817.28;29395;229;63004;-56
2023/03/27 00:30:59;;;;;;;0.57;0.57;;;;;;;5.32;92.33;95811.91;29395;212;63009;-56
2023/03/27 00:31:30;;;;;;;0.52;0.52;;;;;;;5.34;92.45;95823.19;29395;219;63004;-57
2023/03/27 00:32:02;;;;;;;0.70;0.70;;;;;;;5.32;91.70;95817.28;29394;243;64013;-57
2023/03/27 00:32:33;;;;;;;0.50;0.50;;;;;;;5.31;91.94;95815.69;29395;235;63004;-56
2023/03/27 00:33:09;;;;;;;0.68;0.68;;;;;;;5.33;92.44;95818.09;29395;206;63008;-54
2023/03/27 00:33:41;;;;;;;0.60;0.60;;;;;;;5.31;91.97;95821.06;29395;219;63005;-56
2023/03/27 00:34:12;;;;;;;0.60;0.60;;;;;;;5.28;92.45;95816.25;29395;275;63009;-55
2023/03/27 00:34:43;;;;;;;0.60;0.60;;;;;;;5.29;92.53;95822.44;29395;274;63005;-58
2023/03/27 00:35:15;;;;;;;0.50;0.50;;;;;;;5.26;92.70;95823.78;29394;272;64013;-54
2023/03/27 00:35:48;;;;;;;0.60;0.60;;;;;;;5.22;93.18;95828.12;29395;217;63005;-57
2023/03/27 00:36:20;;;;;;;0.60;0.60;;;;;;;5.19;93.93;95828.75;29395;216;63009;-55
2023/03/27 00:36:52;;;;;;;0.60;0.60;;;;;;;5.25;93.75;95827.56;29394;203;64009;-57
2023/03/27 00:37:23;;;;;;;0.60;0.60;;;;;;;5.28;93.51;95821.63;29395;228;63009;-55
2023/03/27 00:37:56;;;;;;;0.60;0.60;;;;;;;5.28;93.15;95821.63;29395;294;63004;-56
2023/03/27 00:38:28;;;;;;;0.60;0.60;;;;;;;5.26;93.47;95826.50;29395;199;63009;-57
2023/03/27 00:38:59;;;;;;;0.60;0.60;;;;;;;5.29;93.15;95817.84;29395;214;63004;-54
2023/03/27 00:39:31;;;;;;;0.60;0.60;;;;;;;5.24;92.95;95831.34;29395;219;63009;-56
2023/03/27 00:40:06;;;;;;;0.50;0.50;;;;;;;5.15;93.77;95834.97;29394;206;64008;-61
2023/03/27 00:40:38;;;;;;;0.60;0.60;;;;;;;5.18;94.39;95829.81;29395;238;63008;-57
2023/03/27 00:41:10;;;;;;;0.60;0.60;;;;;;;5.15;94.48;95827.69;29394;220;64009;-57
2023/03/27 00:41:41;;;;;;;0.60;0.60;;;;;;;5.20;94.44;95837.59;29395;246;63009;-57
2023/03/27 00:42:13;;;;;;;0.60;0.60;;;;;;;5.24;93.62;95834.03;29395;306;63005;-56
2023/03/27 00:42:47;;;;;;;0.65;0.65;;;;;;;5.28;92.71;95832.37;29395;220;63009;-57
2023/03/27 00:43:27;;;;;;;0.60;0.60;;;;;;;5.32;92.48;95843.38;29395;197;63005;-57
2023/03/27 00:43:58;;;;;;;0.60;0.60;;;;;;;5.31;92.30;95836.41;29438;263;64013;-53
2023/03/27 00:44:33;;;;;;;1.12;1.02;;;;;;;5.28;92.55;95837.75;29395;238;63005;-57
2023/03/27 00:45:07;;;;;;;0.60;0.60;;;;;;;5.30;92.51;95840.16;29394;235;64002;-57
2023/03/27 00:45:38;;;;;;;0.60;0.60;;;;;;;5.28;92.90;95837.75;29395;226;63004;-56
2023/03/27 00:46:40;;;;;;;0.65;0.65;;;;;;;5.30;92.48;95834.78;29395;236;63009;-57
2023/03/27 00:47:13;;;;;;;0.60;0.60;;;;;;;5.29;92.45;95843.94;29417;236;63012;-57
2023/03/27 00:47:46;;;;;;;0.60;0.60;;;;;;;5.26;92.68;95837.25;29395;220;63008;-57
2023/03/27 00:48:19;;;;;;;0.50;0.50;;;;;;;5.26;92.73;95844.50;29395;243;63004;-57
2023/03/27 00:48:52;;;;;;;0.57;0.57;;;;;;;5.18;93.13;95837.88;29395;202;63009;-55
2023/03/27 00:49:30;;;;;;;0.60;0.60;;;;;;;5.20;93.52;95849.13;29395;237;63005;-56
2023/03/27 00:50:13;;;;;;;0.52;0.52;;;;;;;5.21;93.37;95848.06;29394;227;64014;-55
2023/03/27 00:50:46;;;;;;;0.60;0.60;;;;;;;5.20;93.37;95853.75;29395;226;63008;-55
2023/03/27 00:51:22;;;;;;;0.75;0.75;;;;;;;5.21;93.41;95845.34;29394;218;64013;-55
2023/03/27 00:51:56;;;;;;;0.70;0.70;;;;;;;5.23;93.15;95856.63;29395;261;63005;-55
2023/03/27 00:52:30;;;;;;;0.60;0.60;;;;;;;5.26;92.92;95855.28;29395;216;63027;-55
2023/03/27 00:53:09;;;;;;;0.60;0.60;;;;;;;5.27;92.68;95862.25;29395;196;63004;-57
2023/03/27 00:53:42;;;;;;;0.60;0.60;;;;;;;5.22;92.87;95856.91;29395;198;63009;-55
2023/03/27 00:54:20;;;;;;;0.70;0.70;;;;;;;5.21;93.19;95858.81;29395;196;63004;-56
2023/03/27 00:54:52;;;;;;;0.60;0.60;;;;;;;5.20;93.04;95857.19;29395;221;63009;-56
2023/03/27 00:55:27;;;;;;;0.68;0.68;;;;;;;5.17;92.48;95857.78;29395;240;63004;-59
2023/03/27 00:56:04;;;;;;;0.62;0.62;;;;;;;5.16;93.01;95856.19;29394;215;64014;-55
2023/03/27 00:56:39;;;;;;;0.60;0.60;;;;;;;5.17;93.10;95857.00;29395;228;63005;-53
2023/03/27 00:57:15;;;;;;;0.60;0.60;;;;;;;5.17;92.80;95863.19;29395;240;63020;-55
2023/03/27 00:57:53;;;;;;;0.60;0.60;;;;;;;5.18;92.25;95863.97;29395;224;63005;-55
2023/03/27 00:58:32;;;;;;;0.50;0.50;;;;;;;5.19;92.82;95858.31;29394;219;64009;-56
2023/03/27 00:59:11;;;;;;;0.60;0.60;;;;;;;5.20;92.72;95867.19;29395;231;63005;-55
2023/03/27 00:59:45;;;;;;;0.70;0.70;;;;;;;5.16;93.37;95869.63;29395;276;63017;-55
2023/03/27 01:00:18;;;;;;;0.70;0.70;;;;;;;5.15;93.29;95865.34;29373;197;63004;-52
2023/03/27 01:00:53;;;;;;;1.08;1.05;;;;;;;5.12;93.04;95851.66;29373;228;63009;-55
2023/03/27 01:01:27;;;;;;;0.50;0.50;;;;;;;5.11;93.19;95864.31;29395;197;64009;-58
2023/03/27 01:02:01;;;;;;;0.60;0.60;;;;;;;5.10;93.40;95869.97;29396;234;63008;-53
2023/03/27 01:02:32;;;;;;;0.60;0.60;;;;;;;5.09;93.46;95866.47;29374;226;63004;-59
2023/03/27 01:03:06;;;;;;;0.90;0.90;;;;;;;5.09;93.38;95871.84;29396;244;63008;-56
2023/03/27 01:03:40;;;;;;;0.80;0.80;;;;;;;5.10;93.34;95870.75;29396;240;63005;-58
2023/03/27 01:04:12;;;;;;;0.60;0.60;;;;;;;5.10;93.79;95872.66;29396;281;63009;-59
2023/03/27 01:04:45;;;;;;;0.70;0.70;;;;;;;5.07;93.82;95873.22;29373;272;63005;-62
2023/03/27 01:05:19;;;;;;;0.60;0.60;;;;;;;5.06;92.94;95869.72;29396;214;63009;-60
2023/03/27 01:05:53;;;;;;;0.98;0.98;;;;;;;5.05;92.62;95876.97;29374;202;63005;-61
2023/03/27 01:06:24;;;;;;;0.70;0.70;;;;;;;5.00;92.29;95873.53;29373;281;64013;-54
2023/03/27 01:06:59;;;;;;;0.60;0.60;;;;;;;4.99;92.67;95874.62;29374;216;63004;-63
2023/03/27 01:07:30;;;;;;;0.60;0.60;;;;;;;4.97;92.53;95874.09;29395;215;63009;-52
2023/03/27 01:08:03;;;;;;;0.70;0.70;;;;;;;4.93;92.83;95873.06;29396;264;63004;-58
2023/03/27 01:08:38;;;;;;;0.73;0.73;;;;;;;4.92;93.56;95887.56;29373;198;63009;-56
2023/03/27 01:09:09;;;;;;;0.50;0.50;;;;;;;4.90;93.74;95878.97;29374;234;63009;-57
2023/03/27 01:09:41;;;;;;;0.60;0.60;;;;;;;4.90;94.12;95882.47;29396;231;63025;-57
2023/03/27 01:10:15;;;;;;;0.60;0.60;;;;;;;4.92;93.89;95882.19;29396;218;63010;-55
2023/03/27 01:10:58;;;;;;;0.60;0.60;;;;;;;4.92;94.19;95876.81;29396;265;63009;-58
2023/03/27 01:12:07;;;;;;;0.60;0.60;;;;;;;4.93;94.42;95881.12;29372;238;64009;-57
2023/03/27 01:13:03;;;;;;;0.60;0.60;;;;;;;4.94;94.04;95890.78;29374;285;63009;-56
2023/03/27 01:14:18;;;;;;;0.60;0.60;;;;;;;4.91;93.03;95885.97;29374;198;63005;-54
2023/03/27 01:15:32;;;;;;;0.70;0.70;;;;;;;4.85;93.06;95887.13;29374;325;63009;-53
2023/03/27 01:16:42;;;;;;;0.70;0.70;;;;;;;4.83;92.96;95894.66;29372;208;64009;-54
2023/03/27 01:17:49;;;;;;;0.70;0.70;;;;;;;4.81;91.92;95892.25;29374;249;63008;-56
2023/03/27 01:19:07;;;;;;;0.93;0.93;;;;;;;4.79;92.13;95899.78;29374;315;63005;-56
2023/03/27 01:20:17;;;;;;;0.68;0.68;;;;;;;4.71;91.94;95898.50;29374;258;63009;-54
2023/03/27 01:21:48;;;;;;;0.62;0.62;;;;;;;4.72;91.27;95905.47;29372;198;64009;-55
2023/03/27 01:23:03;;;;;;;0.60;0.60;;;;;;;4.66;91.30;95909.25;29374;321;63009;-56
2023/03/27 01:23:57;;;;;;;0.65;0.65;;;;;;;4.66;91.32;95892.34;29374;209;63004;-53
2023/03/27 01:25:09;;;;;;;0.60;0.60;;;;;;;4.65;91.79;95896.91;29374;362;63008;-55
2023/03/27 01:26:21;;;;;;;0.60;0.60;;;;;;;4.66;91.48;95905.78;29397;202;63005;-61
2023/03/27 01:27:24;;;;;;;0.60;0.60;;;;;;;4.65;91.66;95899.59;29395;277;64014;-55
2023/03/27 01:28:34;;;;;;;0.60;0.60;;;;;;;4.62;92.39;95899.34;29374;225;63005;-55
2023/03/27 01:29:37;;;;;;;0.80;0.80;;;;;;;4.66;92.16;95906.59;29374;228;63009;-53
2023/03/27 01:32:00;;;;;;;0.63;0.63;;;;;;;4.66;92.55;95914.63;88173;208;64004;-58
2023/03/27 01:33:20;;;;;;;0.62;0.62;;;;;;;4.68;92.34;95920.53;29394;349;64009;-54
2023/03/27 01:34:43;;;;;;;0.60;0.60;;;;;;;4.70;91.44;95910.31;29373;249;63005;-72
2023/03/27 01:36:17;;;;;;;0.60;0.60;;;;;;;4.65;92.29;95910.34;29371;221;64013;-55
2023/03/27 01:37:15;;;;;;;0.60;0.60;;;;;;;4.69;92.84;95926.72;29373;318;63004;-57
2023/03/27 01:38:37;;;;;;;0.90;0.90;;;;;;;4.70;93.30;95922.94;29373;209;63008;-57
2023/03/27 01:39:53;;;;;;;0.60;0.60;;;;;;;4.69;92.96;95932.91;29417;199;63005;-56
2023/03/27 01:40:58;;;;;;;0.60;0.60;;;;;;;4.70;92.62;95945.25;29371;232;64013;-54
2023/03/27 01:41:49;;;;;;;0.60;0.60;;;;;;;4.67;92.75;95935.06;29373;325;63004;-59
2023/03/27 01:42:37;;;;;;;0.95;0.95;;;;;;;4.65;93.04;95942.59;29395;210;63009;-58
2023/03/27 01:43:46;;;;;;;0.70;0.70;;;;;;;4.67;93.01;95943.12;29395;330;63004;-57
2023/03/27 01:45:18;;;;;;;0.70;0.70;;;;;;;4.67;92.70;95945.81;29373;219;63009;-56
2023/03/27 01:46:15;;;;;;;0.80;0.80;;;;;;;4.62;92.83;95936.97;29371;213;64009;-55
2023/03/27 01:46:55;;;;;;;0.60;0.60;;;;;;;4.59;93.40;95957.12;29373;256;63009;-56
2023/03/27 01:47:47;;;;;;;1.23;1.23;;;;;;;4.56;93.92;95941.56;29371;229;64009;-57
2023/03/27 01:49:13;;;;;;;0.60;0.60;;;;;;;4.57;94.06;95945.06;29373;341;63009;-53
2023/03/27 01:49:59;;;;;;;0.60;0.60;;;;;;;4.57;94.60;95961.97;29373;333;63005;-57
2023/03/27 01:50:51;;;;;;;0.60;0.60;;;;;;;4.54;94.37;95957.16;29373;367;63009;-55
2023/03/27 01:51:46;;;;;;;0.70;0.70;;;;;;;4.57;94.02;95953.09;29395;217;63004;-62
2023/03/27 01:52:25;;;;;;;0.60;0.60;;;;;;;4.56;93.48;95960.38;29395;247;63009;-57
2023/03/27 01:53:15;;;;;;;1.65;1.25;;;;;;;4.56;92.65;95965.75;29372;280;64008;-55
2023/03/27 01:54:02;;;;;;;0.60;0.60;;;;;;;4.55;92.81;95958.75;29373;303;63009;-57
2023/03/27 01:54:37;;;;;;;0.70;0.70;;;;;;;4.54;92.35;95973.28;29373;328;63005;-56
2023/03/27 01:55:14;;;;;;;0.70;0.70;;;;;;;4.52;91.62;95964.69;29373;249;63009;-57
2023/03/27 01:55:51;;;;;;;0.60;0.60;;;;;;;4.49;91.71;95964.47;29371;219;64009;-56
2023/03/27 01:56:36;;;;;;;0.60;0.60;;;;;;;4.48;91.87;95968.22;29373;275;63014;-52
2023/03/27 01:57:36;;;;;;;0.60;0.60;;;;;;;4.45;92.45;95974.94;29373;213;63004;-57
2023/03/27 01:58:15;;;;;;;0.60;0.60;;;;;;;4.45;92.03;95980.31;29371;290;64006;-59
2023/03/27 01:58:49;;;;;;;0.70;0.70;;;;;;;4.46;91.66;95973.88;29373;232;63004;-58
2023/03/27 01:59:26;;;;;;;0.60;0.60;;;;;;;4.45;91.56;95976.84;29373;307;63008;-57
2023/03/27 02:00:10;;;;;;;0.60;0.60;;;;;;;4.40;91.63;95972.28;29373;299;63004;-61
2023/03/27 02:00:46;;;;;;;0.60;0.60;;;;;;;4.31;92.46;95982.00;29373;208;63008;-56
2023/03/27 02:01:26;;;;;;;0.60;0.60;;;;;;;4.32;93.53;95991.66;29373;230;63005;-61
2023/03/27 02:02:08;;;;;;;0.60;0.60;;;;;;;4.33;93.31;95982.50;29373;314;63009;-57
2023/03/27 02:02:44;;;;;;;0.60;0.60;;;;;;;4.34;92.62;95990.31;29373;228;63000;-57
2023/03/27 02:03:29;;;;;;;0.60;0.60;;;;;;;4.40;92.31;95988.41;29371;323;64013;-57
2023/03/27 02:04:01;;;;;;;0.60;0.60;;;;;;;4.43;92.00;95995.09;29373;249;63005;-59
2023/03/27 02:04:43;;;;;;;0.70;0.70;;;;;;;4.43;92.21;95995.91;29371;260;64013;-56
2023/03/27 02:05:21;;;;;;;0.77;0.70;;;;;;;4.45;91.52;95991.06;29373;262;63004;-54
2023/03/27 02:05:57;;;;;;;0.65;0.65;;;;;;;4.45;91.08;96007.19;29373;260;63009;-54
2023/03/27 02:06:38;;;;;;;0.70;0.70;;;;;;;4.40;91.17;95993.78;29371;292;64009;-55
2023/03/27 02:07:12;;;;;;;;;;;;;;;4.34;91.97;96005.59;29974;983;28000;-62
2023/03/27 02:07:52;;;;;;;0.60;0.60;;;;;;;4.26;92.33;95992.75;29400;204;63009;-68
2023/03/27 02:08:35;;;;;;;0.70;0.70;;;;;;;4.21;93.09;96000.81;29373;240;63005;-57
2023/03/27 02:09:20;;;;;;;0.70;0.70;;;;;;;4.23;92.87;96007.53;29373;281;63009;-70
2023/03/27 02:09:59;;;;;;;0.60;0.60;;;;;;;4.17;92.46;96005.13;29371;197;64009;-57
2023/03/27 02:10:36;;;;;;;0.73;0.73;;;;;;;4.18;92.19;95998.66;29373;197;63009;-55
2023/03/27 02:11:08;;;;;;;0.75;0.75;;;;;;;4.12;92.20;96010.53;29373;270;63005;-56
2023/03/27 02:11:46;;;;;;;0.60;0.60;;;;;;;4.10;92.39;96010.00;29373;211;63009;-57
2023/03/27 02:12:47;;;;;;;0.70;0.70;;;;;;;4.08;92.02;96007.59;29373;279;63010;-53
2023/03/27 02:13:42;;;;;;;0.88;0.88;;;;;;;4.04;92.58;96010.00;29373;265;63009;-57
2023/03/27 02:14:22;;;;;;;0.70;0.70;;;;;;;4.02;92.54;96020.22;29373;373;63004;-60
2023/03/27 02:14:59;;;;;;;0.98;0.93;;;;;;;4.01;92.37;96017.78;29371;320;64013;-54
2023/03/27 02:15:34;;;;;;;0.60;0.60;;;;;;;4.02;92.58;96014.84;29373;331;63005;-58
2023/03/27 02:16:10;;;;;;;0.60;0.60;;;;;;;4.02;92.50;96020.22;29373;281;63009;-55
2023/03/27 02:16:47;;;;;;;0.60;0.60;;;;;;;3.99;92.62;96028.00;29373;279;63005;-60
2023/03/27 02:17:24;;;;;;;0.80;0.80;;;;;;;3.99;92.00;96036.84;29373;216;63009;-60
2023/03/27 02:18:06;;;;;;;0.80;0.80;;;;;;;3.98;90.96;96029.87;29373;308;63005;-58
2023/03/27 02:18:46;;;;;;;0.70;0.70;;;;;;;3.96;90.28;96026.66;29373;256;63009;-54
2023/03/27 02:19:28;;;;;;;0.90;0.90;;;;;;;3.94;90.04;96034.19;29373;209;63004;-55
2023/03/27 02:20:13;;;;;;;0.98;0.98;;;;;;;3.91;90.19;96034.72;29371;217;64013;-56
2023/03/27 02:20:45;;;;;;;0.60;0.60;;;;;;;3.89;90.05;96036.88;29373;309;63004;-62
2023/03/27 02:21:17;;;;;;;0.60;0.60;;;;;;;3.89;91.10;96041.44;29373;361;63009;-54
2023/03/27 02:21:48;;;;;;;1.67;0.85;;;;;;;3.89;90.26;96036.88;29373;305;63004;-55
2023/03/27 02:22:20;;;;;;;0.60;0.60;;;;;;;3.86;90.81;96040.09;29373;334;63008;-60
2023/03/27 02:22:52;;;;;;;0.65;0.65;;;;;;;3.86;90.97;96042.78;29373;327;63005;-56
2023/03/27 02:23:24;;;;;;;0.70;0.70;;;;;;;3.87;90.83;96039.00;29371;219;64014;-64
2023/03/27 02:23:55;;;;;;;0.90;0.90;;;;;;;3.91;90.00;96044.66;29373;262;63005;-55
2023/03/27 02:24:27;;;;;;;0.60;0.60;;;;;;;3.90;89.11;96043.03;29373;259;63009;-59
2023/03/27 02:24:59;;;;;;;0.70;0.70;;;;;;;3.88;88.24;96042.50;29373;202;63015;-55
2023/03/27 02:25:33;;;;;;;0.73;0.70;;;;;;;3.87;88.47;96054.31;29373;289;63009;-57
2023/03/27 02:26:05;;;;;;;0.50;0.50;;;;;;;3.84;89.21;96047.59;29373;344;63005;-55
2023/03/27 02:26:38;;;;;;;0.60;0.60;;;;;;;3.84;89.28;96055.66;29371;197;64013;-57
2023/03/27 02:27:47;;;;;;;0.73;0.73;;;;;;;3.88;88.23;96056.72;29373;260;63004;-62
2023/03/27 02:28:51;;;;;;;0.70;0.70;;;;;;;3.78;88.92;96061.31;29372;204;63004;-54
2023/03/27 02:29:53;;;;;;;0.75;0.75;;;;;;;3.83;88.74;96064.78;29373;323;63008;-62
2023/03/27 02:30:37;;;;;;;;;;;;;;;3.78;88.63;96061.31;29974;983;28000;-56
2023/03/27 02:31:33;;;;;;;0.65;0.65;;;;;;;3.76;88.56;96069.63;29399;243;64009;-55
2023/03/27 02:32:55;;;;;;;0.70;0.70;;;;;;;3.82;88.26;96065.06;29373;202;63009;-57
2023/03/27 02:33:53;;;;;;;0.80;0.80;;;;;;;3.79;87.44;96079.03;29373;232;63005;-58
2023/03/27 02:35:04;;;;;;;0.65;0.65;;;;;;;3.72;88.33;96073.94;29373;220;63009;-56
2023/03/27 02:36:19;;;;;;;0.73;0.73;;;;;;;3.70;87.63;96073.41;29373;230;63004;-58
2023/03/27 02:37:58;;;;;;;0.95;0.95;;;;;;;3.62;87.98;96092.69;29371;205;64012;-53
2023/03/27 02:39:00;;;;;;;0.62;0.62;;;;;;;3.63;88.25;96099.69;29373;203;63005;-56
2023/03/27 02:39:54;;;;;;;0.60;0.60;;;;;;;3.59;88.73;96083.31;29373;242;63009;-54
2023/03/27 02:40:57;;;;;;;1.23;1.23;;;;;;;3.53;88.31;96097.78;29373;285;63005;-57
2023/03/27 02:41:43;;;;;;;0.90;0.90;;;;;;;3.51;88.30;96099.13;29371;211;64013;-57
2023/03/27 02:42:56;;;;;;;3.22;1.50;;;;;;;3.44;88.79;96106.66;29373;214;63009;-54
2023/03/27 02:43:38;;;;;;;1.45;1.35;;;;;;;3.44;89.04;96098.59;29371;227;64013;-57
2023/03/27 02:44:44;;;;;;;1.55;0.80;;;;;;;3.39;89.21;96091.34;29395;257;63004;-57
2023/03/27 02:45:35;;;;;;;0.85;0.82;;;;;;;3.41;89.19;96104.50;29394;249;64014;-57
2023/03/27 02:46:20;;;;;;;0.73;0.73;;;;;;;3.44;89.18;96103.97;29395;219;63005;-55
2023/03/27 02:47:24;;;;;;;0.80;0.80;;;;;;;3.39;89.57;96115.50;29395;219;63009;-55
2023/03/27 02:48:08;;;;;;;0.85;0.85;;;;;;;3.37;89.65;96107.72;29371;216;64009;-56
2023/03/27 02:48:45;;;;;;;0.80;0.80;;;;;;;3.35;90.57;96112.53;29373;202;63009;-52
2023/03/27 02:49:23;;;;;;;1.23;0.95;;;;;;;3.37;88.57;96110.41;29373;330;63005;-56
2023/03/27 02:50:00;;;;;;;1.12;1.12;;;;;;;3.36;88.75;96116.81;29373;203;63009;-55
2023/03/27 02:51:02;;;;;;;0.70;0.70;;;;;;;3.36;89.93;96116.03;29373;196;63004;-57
2023/03/27 02:51:43;;;;;;;0.90;0.90;;;;;;;3.38;89.92;96116.56;29371;246;64013;-58
2023/03/27 02:52:27;;;;;;;0.70;0.70;;;;;;;3.34;89.87;96116.28;29395;236;63004;-52
2023/03/27 02:53:02;;;;;;;4.05;1.20;;;;;;;3.33;89.75;96113.87;29395;201;63009;-57
2023/03/27 02:53:44;;;;;;;0.70;0.70;;;;;;;3.34;89.62;96120.84;29373;200;63005;-57
2023/03/27 02:54:21;;;;;;;1.00;1.00;;;;;;;3.33;90.17;96130.75;29373;258;63009;-55
2023/03/27 02:55:05;;;;;;;1.12;1.12;;;;;;;3.32;89.94;96122.97;29373;216;63019;-57
2023/03/27 02:55:51;;;;;;;0.70;0.70;;;;;;;3.27;90.68;96120.28;29373;275;63009;-56
2023/03/27 02:56:30;;;;;;;1.08;1.05;;;;;;;3.29;90.52;96126.19;29371;255;64009;-53
2023/03/27 02:57:09;;;;;;;0.60;0.60;;;;;;;3.29;90.95;96134.22;29373;224;63009;-56
2023/03/27 02:57:45;;;;;;;2.25;0.88;;;;;;;3.28;91.56;96133.44;29373;224;63004;-57
2023/03/27 02:58:25;;;;;;;0.70;0.70;;;;;;;3.31;91.00;96134.78;29373;278;63009;-55
2023/03/27 02:59:04;;;;;;;1.17;1.17;;;;;;;3.36;91.25;96140.97;29373;210;63015;-54
2023/03/27 02:59:43;;;;;;;0.70;0.70;;;;;;;3.36;91.46;96138.28;29373;314;63008;-53
2023/03/27 03:00:19;;;;;;;1.98;1.15;;;;;;;3.36;90.97;96138.28;29373;208;63004;-55
2023/03/27 03:00:51;;;;;;;0.60;0.60;;;;;;;3.30;90.85;96142.00;29371;255;64014;-55
2023/03/27 03:01:25;;;;;;;0.62;0.62;;;;;;;3.29;91.20;96140.41;29373;271;63005;-56
2023/03/27 03:01:57;;;;;;;0.95;0.90;;;;;;;3.28;90.64;96144.16;29373;278;63009;-56
2023/03/27 03:02:32;;;;;;;0.60;0.60;;;;;;;3.28;90.18;96138.00;29373;212;63005;-55
2023/03/27 03:03:16;;;;;;;0.75;0.75;;;;;;;3.27;91.16;96153.25;29373;203;63017;-54
2023/03/27 03:04:00;;;;;;;0.70;0.70;;;;;;;3.23;91.17;96146.81;29373;259;63004;-56
2023/03/27 03:04:47;;;;;;;0.75;0.75;;;;;;;3.23;89.91;96162.09;29373;279;63016;-66
2023/03/27 03:05:22;;;;;;;0.50;0.50;;;;;;;3.17;89.46;96150.56;29371;327;64009;-56
2023/03/27 03:05:55;;;;;;;0.82;0.82;;;;;;;3.11;90.01;96150.81;29373;206;63009;-56
2023/03/27 03:06:29;;;;;;;0.70;0.70;;;;;;;3.15;89.04;96159.91;29371;282;64008;-57
2023/03/27 03:07:05;;;;;;;0.95;0.95;;;;;;;3.16;88.11;96162.34;29373;238;63008;-70
2023/03/27 03:07:39;;;;;;;1.20;1.10;;;;;;;3.14;87.29;96156.44;29373;212;63004;-58
2023/03/27 03:08:11;;;;;;;0.70;0.70;;;;;;;3.12;87.41;96155.88;29373;216;63009;-55
2023/03/27 03:08:45;;;;;;;2.33;1.30;;;;;;;3.13;88.17;96156.69;29373;204;63005;-56
2023/03/27 03:09:17;;;;;;;1.17;1.17;;;;;;;3.12;89.14;96153.22;29373;297;63009;-56
2023/03/27 03:09:49;;;;;;;0.75;0.75;;;;;;;3.08;88.41;96151.34;29371;287;64009;-55
2023/03/27 03:10:23;;;;;;;0.80;0.80;;;;;;;3.07;89.03;96158.59;29373;358;63009;-61
2023/03/27 03:11:01;;;;;;;0.60;0.60;;;;;;;3.06;89.34;96167.69;29373;202;63005;-58
2023/03/27 03:11:35;;;;;;;0.60;0.60;;;;;;;3.08;89.31;96165.56;29373;265;63025;-58
2023/03/27 03:12:07;;;;;;;0.60;0.60;;;;;;;3.08;89.39;96178.16;29373;219;63004;-55
2023/03/27 03:12:39;;;;;;;0.80;0.80;;;;;;;3.09;89.16;96177.88;29373;196;63016;-58
2023/03/27 03:13:10;;;;;;;1.33;1.23;;;;;;;3.09;88.13;96161.81;29371;217;64009;-57
2023/03/27 03:13:42;;;;;;;1.25;1.15;;;;;;;3.08;87.95;96170.09;29373;213;63009;-58
2023/03/27 03:14:13;;;;;;;1.23;1.10;;;;;;;3.07;86.95;96165.81;29373;267;63004;-54
2023/03/27 03:14:45;;;;;;;0.93;0.93;;;;;;;3.03;87.08;96173.56;29372;202;64013;-53
2023/03/27 03:15:17;;;;;;;0.60;0.60;;;;;;;2.99;87.93;96172.47;29373;230;63005;-56
2023/03/27 03:15:49;;;;;;;1.10;0.73;;;;;;;2.94;88.45;96172.44;29373;199;63009;-56
2023/03/27 03:16:22;;;;;;;0.90;0.90;;;;;;;2.97;88.64;96188.00;29371;213;64009;-59
2023/03/27 03:16:53;;;;;;;0.80;0.80;;;;;;;2.96;88.06;96179.16;29373;283;63009;-61
2023/03/27 03:17:24;;;;;;;0.75;0.75;;;;;;;2.94;87.31;96169.78;29373;336;63005;-59
2023/03/27 03:17:56;;;;;;;0.73;0.73;;;;;;;2.95;87.13;96187.47;29373;266;63009;-55
2023/03/27 03:19:34;;;;;;;0.69;0.69;;;;;;;2.89;88.17;96183.16;88178;221;64005;-58
2023/03/27 03:20:08;;;;;;;1.23;1.12;;;;;;;2.88;88.95;96186.88;29394;202;64021;-58
2023/03/27 03:20:40;;;;;;;0.68;0.68;;;;;;;2.87;88.57;96180.72;29373;232;63013;-52